Etusivu
METAR-TAF:

METAR-TAF

Lentoasemat :

Gran Canaria, Espanja

Gran Canarian lentoasema

Leveyspiiri: 27-56N, Pituuspiiri: 015-23W, korkeus merenpinnasta: 23 m

Tämänhetkinen sää

Tämä raportti tehtiin 35 minuuttia sitten, kello 17.00 UTC
Tuuli 12 kn pohjoisesta/koillisesta, vaihdellen pohjoisen ja idän/koillisen välillä
Lämpötila 22°C
Kosteus 65%
Ilmanpaine 1017 hPa
Näkyvyys 10 km tai enemmän
Muutamia pilviä 2500 ft:n korkeudessa

METAR: GCLP 171700Z 03012KT 010V070 9999 FEW025 22/15 Q1017 NOSIG

Aika: 17:35 (17:35 UTC)

Sääennuste

Tämä raportti tehtiin 3 tuntia ja 35 minuuttia sitten, kello 14.00 UTC
Ennuste voimassa 17. päivästä klo 15 UTC - 18. päivään klo 15 UTC
Tuuli 10 kn koillisesta
Näkyvyys 10 km tai enemmän
Muutamia pilviä 2500 ft:n korkeudessa
Tulossa
17. päivästä klo 20 UTC - 17. päivään klo 22 UTC
Tuuli 5 kn pohjoisen/luoteesta

TAF: GCLP 171400Z 1715/1815 04010KT 9999 FEW025 TX23/1814Z TN18/1806Z BECMG 1720/1722 33005KT

Säähavainnot ja -ennusteet yli 4000 lentoasemalta (METAR- ja TAF-raportit).

Käytössä olevat sääasemat on merkitty karttaan keltaisilla ja punaisilla pisteillä.

Aseta hiiri pisteen päälle nähdäksesi sääaseman nimen.

Klikkaa sitten nähdäksesi säähavainnot ja -ennusteet.

Kartan vaihtaminen: klikkaa mustalla rastilla varustettuja vihreitä pisteitä, niin voit zoomata sisään; viivalla varustettua vihreää pistettä, niin voit zoomata ulos tai vihreitä nuolia, niin pääset viereisille kartoille.


METAR-TAF: